KBWI/BWI METAR and TAF weather

Enter ICAO airport designator
Station Type Date Time Source
KBWI METAR 2021/09/28 03:54 UTC NOAA

KBWI 280354Z 00000KT 10SM FEW180 20/12 A2991 RMK AO2 SLP127 T02000122


Station Type Date Time Source
KBWI Decoded METAR 2021/09/28 03:54 UTC NOAA

BALTIMORE-WASHINGTON INTERNATIONAL , MD, United States (KBWI) 39-10N 076-41W 59M
Sep 27, 2021 - 11:54 PM EDT / 2021.09.28 0354 UTC
Wind: Calm:0
Visibility: 10 mile(s):0
Sky conditions: mostly clear
Temperature: 68.0 F (20.0 C)
Dew Point: 54.0 F (12.2 C)
Relative Humidity: 60%
Pressure (altimeter): 29.91 in. Hg (1012 hPa)
ob: KBWI 280354Z 00000KT 10SM FEW180 20/12 A2991 RMK AO2 SLP127 T02000122
cycle: 4

Station Type Date Time Source
KBWI TAF 2021/09/28 03:58 UTC NOAA

TAF
AMD KBWI 280257Z 2803/2906 VRB04KT P6SM SKC
FM281500 26009KT P6SM SCT090
FM281800 27011KT P6SM -SHRA VCTS SCT050CB
FM282300 33005KT P6SM SCT050
FM290400 36006KT P6SM FEW200

Example: see airport list